EZY18RN EGGW-EGJJ
Flight info
| Callsign | EZY18RN |
|---|---|
| Flight time | 0h 48m |
| Altitude | 26000 |
| Route | RODNI N27 ICTAM Q63 CPT Y321 PEPIS Q41 SAM N63 LELNA |
| Aircraft | A320/M-SDE3FGHIRWY/LB1 |
Departure
| Time | 2026-05-04 18:46 |
|---|---|
| Airport | London Luton Airport (EGGW) |
Arrival
| Time | 2026-05-04 19:35 |
|---|---|
| Airport | Jersey Airport (EGJJ) |
| Time | Latitude | Longitude | Altitude | Speed | Heading |
|---|---|---|---|---|---|
| 2026-05-04 18:25 | 51.87926 | -0.37927 | 524 ft | 0 kts | 101° |
| 2026-05-04 18:37 | 51.87926 | -0.37928 | 523 ft | 1 kts | 100° |
| 2026-05-04 18:38 | 51.87933 | -0.37964 | 523 ft | 4 kts | 130° |
| 2026-05-04 18:38 | 51.87954 | -0.37988 | 523 ft | 4 kts | 169° |
| 2026-05-04 18:38 | 51.87978 | -0.37987 | 523 ft | 2 kts | 202° |
| 2026-05-04 18:38 | 51.87979 | -0.37987 | 523 ft | 0 kts | 202° |
| 2026-05-04 18:40 | 51.87973 | -0.37990 | 523 ft | 5 kts | 202° |
| 2026-05-04 18:41 | 51.87942 | -0.38008 | 523 ft | 4 kts | 196° |
| 2026-05-04 18:41 | 51.87881 | -0.38009 | 523 ft | 13 kts | 168° |
| 2026-05-04 18:41 | 51.87813 | -0.37940 | 523 ft | 11 kts | 131° |
| 2026-05-04 18:41 | 51.87775 | -0.37829 | 523 ft | 11 kts | 115° |
| 2026-05-04 18:42 | 51.87743 | -0.37719 | 523 ft | 12 kts | 115° |
| 2026-05-04 18:42 | 51.87703 | -0.37580 | 520 ft | 14 kts | 114° |
| 2026-05-04 18:42 | 51.87648 | -0.37476 | 523 ft | 10 kts | 152° |
| 2026-05-04 18:42 | 51.87585 | -0.37457 | 523 ft | 9 kts | 179° |
| 2026-05-04 18:43 | 51.87526 | -0.37484 | 521 ft | 9 kts | 212° |
| 2026-05-04 18:43 | 51.87500 | -0.37560 | 522 ft | 8 kts | 255° |
| 2026-05-04 18:43 | 51.87483 | -0.37660 | 523 ft | 9 kts | 255° |
| 2026-05-04 18:43 | 51.87467 | -0.37753 | 523 ft | 8 kts | 255° |
| 2026-05-04 18:44 | 51.87448 | -0.37860 | 523 ft | 14 kts | 254° |
| 2026-05-04 18:44 | 51.87431 | -0.37955 | 524 ft | 12 kts | 253° |
| 2026-05-04 18:44 | 51.87367 | -0.38067 | 523 ft | 11 kts | 206° |
| 2026-05-04 18:44 | 51.87300 | -0.38113 | 522 ft | 10 kts | 191° |
| 2026-05-04 18:45 | 51.87256 | -0.38075 | 523 ft | 6 kts | 105° |
| 2026-05-04 18:45 | 51.87274 | -0.37944 | 524 ft | 28 kts | 77° |
| 2026-05-04 18:45 | 51.87398 | -0.37231 | 521 ft | 99 kts | 73° |
| 2026-05-04 18:45 | 51.87630 | -0.35873 | 523 ft | 151 kts | 71° |
| 2026-05-04 18:46 | 51.87920 | -0.34186 | 1072 ft | 155 kts | 71° |
| 2026-05-04 18:46 | 51.88219 | -0.32535 | 1846 ft | 152 kts | 71° |
| 2026-05-04 18:46 | 51.88510 | -0.30912 | 2473 ft | 148 kts | 71° |
| 2026-05-04 18:46 | 51.88796 | -0.29294 | 2886 ft | 158 kts | 71° |
| 2026-05-04 18:47 | 51.89119 | -0.27484 | 3173 ft | 175 kts | 72° |
| 2026-05-04 18:47 | 51.89286 | -0.25462 | 3453 ft | 192 kts | 91° |
| 2026-05-04 18:47 | 51.88980 | -0.23228 | 3738 ft | 212 kts | 111° |
| 2026-05-04 18:47 | 51.88151 | -0.21160 | 3931 ft | 236 kts | 135° |
| 2026-05-04 18:48 | 51.86690 | -0.19629 | 4184 ft | 264 kts | 162° |
| 2026-05-04 18:48 | 51.84857 | -0.19277 | 4953 ft | 269 kts | 188° |
| 2026-05-04 18:48 | 51.83094 | -0.20230 | 5817 ft | 268 kts | 214° |
| 2026-05-04 18:48 | 51.81769 | -0.22316 | 6662 ft | 268 kts | 239° |
| 2026-05-04 18:49 | 51.81169 | -0.25148 | 7432 ft | 269 kts | 266° |
| 2026-05-04 18:49 | 51.81217 | -0.28173 | 8286 ft | 271 kts | 272° |
| 2026-05-04 18:49 | 51.81292 | -0.31235 | 9130 ft | 274 kts | 271° |
| 2026-05-04 18:49 | 51.81346 | -0.34292 | 9947 ft | 278 kts | 271° |
| 2026-05-04 18:50 | 51.81394 | -0.37431 | 10683 ft | 281 kts | 271° |
| 2026-05-04 18:50 | 51.81439 | -0.40610 | 11418 ft | 285 kts | 271° |
| 2026-05-04 18:50 | 51.81351 | -0.43828 | 12144 ft | 289 kts | 259° |
| 2026-05-04 18:50 | 51.80910 | -0.47025 | 12877 ft | 293 kts | 257° |
| 2026-05-04 18:51 | 51.80423 | -0.50245 | 13605 ft | 297 kts | 256° |
| 2026-05-04 18:51 | 51.79918 | -0.53499 | 14261 ft | 301 kts | 256° |
| 2026-05-04 18:51 | 51.79403 | -0.56798 | 14912 ft | 304 kts | 255° |
| 2026-05-04 18:51 | 51.78885 | -0.60128 | 15549 ft | 307 kts | 255° |
| 2026-05-04 18:52 | 51.78363 | -0.63505 | 16189 ft | 310 kts | 255° |
| 2026-05-04 18:52 | 51.77838 | -0.66907 | 16827 ft | 314 kts | 255° |
| 2026-05-04 18:52 | 51.77306 | -0.70349 | 17459 ft | 317 kts | 255° |
| 2026-05-04 18:52 | 51.76770 | -0.73825 | 18092 ft | 320 kts | 255° |
| 2026-05-04 18:53 | 51.76190 | -0.77272 | 18656 ft | 322 kts | 247° |
| 2026-05-04 18:53 | 51.75083 | -0.80405 | 19188 ft | 323 kts | 229° |
| 2026-05-04 18:53 | 51.73520 | -0.83024 | 19749 ft | 325 kts | 224° |
| 2026-05-04 18:53 | 51.71921 | -0.85600 | 20317 ft | 327 kts | 224° |
| 2026-05-04 18:54 | 51.70304 | -0.88203 | 20882 ft | 329 kts | 224° |
| 2026-05-04 18:54 | 51.68674 | -0.90819 | 21431 ft | 332 kts | 224° |
| 2026-05-04 18:54 | 51.66995 | -0.93510 | 21580 ft | 347 kts | 224° |
| 2026-05-04 18:54 | 51.65243 | -0.96310 | 21715 ft | 362 kts | 224° |
| 2026-05-04 18:55 | 51.63419 | -0.99222 | 21858 ft | 376 kts | 224° |
| 2026-05-04 18:55 | 51.59652 | -1.05244 | 22617 ft | 389 kts | 224° |
| 2026-05-04 18:55 | 51.57730 | -1.08317 | 23132 ft | 391 kts | 224° |
| 2026-05-04 18:56 | 51.55786 | -1.11425 | 23632 ft | 394 kts | 224° |
| 2026-05-04 18:56 | 51.53838 | -1.14535 | 24047 ft | 396 kts | 224° |
| 2026-05-04 18:56 | 51.51854 | -1.17628 | 24457 ft | 397 kts | 219° |
| 2026-05-04 18:56 | 51.49538 | -1.20061 | 24853 ft | 398 kts | 205° |
| 2026-05-04 18:57 | 51.46934 | -1.21579 | 25243 ft | 399 kts | 194° |
| 2026-05-04 18:57 | 51.44218 | -1.22315 | 25632 ft | 401 kts | 185° |
| 2026-05-04 18:57 | 51.41408 | -1.22536 | 25946 ft | 403 kts | 183° |
| 2026-05-04 18:57 | 51.38612 | -1.22758 | 26012 ft | 397 kts | 183° |
| 2026-05-04 18:58 | 51.35867 | -1.22997 | 26023 ft | 393 kts | 183° |
| 2026-05-04 18:58 | 51.33175 | -1.23239 | 26022 ft | 391 kts | 183° |
| 2026-05-04 18:58 | 51.30457 | -1.23483 | 26023 ft | 390 kts | 183° |
| 2026-05-04 18:58 | 51.27744 | -1.23720 | 26026 ft | 390 kts | 183° |
| 2026-05-04 18:59 | 51.25027 | -1.23950 | 26023 ft | 390 kts | 183° |
| 2026-05-04 18:59 | 51.22317 | -1.24172 | 26025 ft | 390 kts | 183° |
| 2026-05-04 18:59 | 51.19618 | -1.24528 | 26020 ft | 389 kts | 189° |
| 2026-05-04 18:59 | 51.16999 | -1.25488 | 26024 ft | 390 kts | 194° |
| 2026-05-04 19:00 | 51.14375 | -1.26594 | 26027 ft | 390 kts | 194° |
| 2026-05-04 19:00 | 51.11750 | -1.27698 | 26025 ft | 390 kts | 194° |
| 2026-05-04 19:00 | 51.09124 | -1.28801 | 26032 ft | 390 kts | 194° |
| 2026-05-04 19:00 | 51.06503 | -1.29904 | 26035 ft | 390 kts | 194° |
| 2026-05-04 19:01 | 51.03865 | -1.31015 | 26036 ft | 389 kts | 194° |
| 2026-05-04 19:01 | 51.01275 | -1.32102 | 26035 ft | 389 kts | 194° |
| 2026-05-04 19:01 | 50.98653 | -1.33200 | 26034 ft | 389 kts | 194° |
| 2026-05-04 19:01 | 50.96045 | -1.34351 | 26034 ft | 390 kts | 198° |
| 2026-05-04 19:02 | 50.93545 | -1.36066 | 26032 ft | 391 kts | 205° |
| 2026-05-04 19:02 | 50.91116 | -1.38013 | 26024 ft | 391 kts | 205° |
| 2026-05-04 19:02 | 50.88682 | -1.39964 | 26026 ft | 392 kts | 205° |
| 2026-05-04 19:02 | 50.86240 | -1.41920 | 26018 ft | 392 kts | 205° |
| 2026-05-04 19:03 | 50.83800 | -1.43869 | 26028 ft | 392 kts | 205° |
| 2026-05-04 19:03 | 50.82182 | -1.45158 | 26018 ft | 392 kts | 205° |
| 2026-05-04 19:03 | 50.78946 | -1.47728 | 26024 ft | 392 kts | 205° |
| 2026-05-04 19:03 | 50.76508 | -1.49663 | 26025 ft | 393 kts | 205° |
| 2026-05-04 19:04 | 50.74855 | -1.50974 | 26005 ft | 393 kts | 205° |
| 2026-05-04 19:04 | 50.72407 | -1.52915 | 25994 ft | 393 kts | 205° |
| 2026-05-04 19:04 | 50.69993 | -1.54826 | 25996 ft | 393 kts | 204° |
| 2026-05-04 19:04 | 50.67543 | -1.56761 | 25999 ft | 393 kts | 204° |
| 2026-05-04 19:05 | 50.65093 | -1.58694 | 26004 ft | 393 kts | 204° |
| 2026-05-04 19:05 | 50.62648 | -1.60627 | 26003 ft | 393 kts | 204° |
| 2026-05-04 19:05 | 50.60198 | -1.62563 | 26007 ft | 393 kts | 204° |
| 2026-05-04 19:05 | 50.57753 | -1.64490 | 26008 ft | 393 kts | 204° |
| 2026-05-04 19:06 | 50.55338 | -1.66390 | 26014 ft | 393 kts | 204° |
| 2026-05-04 19:06 | 50.52886 | -1.68317 | 26006 ft | 393 kts | 204° |
| 2026-05-04 19:06 | 50.50435 | -1.70241 | 26008 ft | 393 kts | 204° |
| 2026-05-04 19:06 | 50.47987 | -1.72159 | 26016 ft | 393 kts | 204° |
| 2026-05-04 19:07 | 50.45535 | -1.74080 | 26015 ft | 393 kts | 204° |
| 2026-05-04 19:07 | 50.43082 | -1.75993 | 26005 ft | 393 kts | 204° |
| 2026-05-04 19:07 | 50.40636 | -1.77897 | 26017 ft | 393 kts | 204° |
| 2026-05-04 19:07 | 50.38220 | -1.79780 | 26019 ft | 392 kts | 204° |
| 2026-05-04 19:08 | 50.35775 | -1.81686 | 26011 ft | 392 kts | 204° |
| 2026-05-04 19:08 | 50.33357 | -1.83571 | 25764 ft | 384 kts | 204° |
| 2026-05-04 19:08 | 50.30972 | -1.85426 | 25524 ft | 381 kts | 204° |
| 2026-05-04 19:08 | 50.28604 | -1.87266 | 25270 ft | 379 kts | 204° |
| 2026-05-04 19:09 | 50.26237 | -1.89102 | 25017 ft | 378 kts | 204° |
| 2026-05-04 19:09 | 50.23878 | -1.90927 | 24782 ft | 377 kts | 204° |
| 2026-05-04 19:09 | 50.21528 | -1.92740 | 24525 ft | 373 kts | 204° |
| 2026-05-04 19:09 | 50.19207 | -1.94529 | 24112 ft | 369 kts | 204° |
| 2026-05-04 19:10 | 50.16930 | -1.96284 | 23677 ft | 366 kts | 204° |
| 2026-05-04 19:10 | 50.14655 | -1.98037 | 23197 ft | 364 kts | 204° |
| 2026-05-04 19:10 | 50.12395 | -1.99783 | 22764 ft | 359 kts | 204° |
| 2026-05-04 19:10 | 50.10162 | -2.01510 | 22345 ft | 355 kts | 204° |
| 2026-05-04 19:11 | 50.07954 | -2.03215 | 21923 ft | 351 kts | 204° |
| 2026-05-04 19:11 | 50.05790 | -2.04880 | 21497 ft | 349 kts | 204° |
| 2026-05-04 19:11 | 50.03611 | -2.06548 | 21069 ft | 346 kts | 204° |
| 2026-05-04 19:11 | 50.01455 | -2.08196 | 20636 ft | 344 kts | 204° |
| 2026-05-04 19:12 | 49.99305 | -2.09824 | 20209 ft | 342 kts | 202° |
| 2026-05-04 19:12 | 49.94709 | -2.11848 | 19391 ft | 355 kts | 191° |
| 2026-05-04 19:12 | 49.92279 | -2.12672 | 18971 ft | 358 kts | 191° |
| 2026-05-04 19:13 | 49.89839 | -2.13504 | 18552 ft | 357 kts | 191° |
| 2026-05-04 19:13 | 49.87412 | -2.14336 | 18118 ft | 357 kts | 191° |
| 2026-05-04 19:13 | 49.84987 | -2.15168 | 17676 ft | 355 kts | 191° |
| 2026-05-04 19:13 | 49.82607 | -2.15984 | 17266 ft | 352 kts | 191° |
| 2026-05-04 19:14 | 49.80214 | -2.16803 | 16850 ft | 349 kts | 191° |
| 2026-05-04 19:14 | 49.77842 | -2.17611 | 16447 ft | 347 kts | 191° |
| 2026-05-04 19:14 | 49.75486 | -2.18410 | 16042 ft | 344 kts | 191° |
| 2026-05-04 19:14 | 49.73177 | -2.19192 | 15647 ft | 342 kts | 191° |
| 2026-05-04 19:15 | 49.70860 | -2.19980 | 15249 ft | 339 kts | 191° |
| 2026-05-04 19:15 | 49.68572 | -2.20867 | 14833 ft | 338 kts | 193° |
| 2026-05-04 19:15 | 49.66310 | -2.21862 | 14418 ft | 337 kts | 195° |
| 2026-05-04 19:15 | 49.64067 | -2.22902 | 14005 ft | 335 kts | 195° |
| 2026-05-04 19:16 | 49.61859 | -2.23934 | 13578 ft | 334 kts | 195° |
| 2026-05-04 19:16 | 49.59642 | -2.24962 | 13154 ft | 331 kts | 195° |
| 2026-05-04 19:16 | 49.57446 | -2.25965 | 12754 ft | 328 kts | 194° |
| 2026-05-04 19:16 | 49.55258 | -2.26951 | 12364 ft | 325 kts | 194° |
| 2026-05-04 19:17 | 49.53082 | -2.27922 | 11956 ft | 323 kts | 194° |
| 2026-05-04 19:17 | 49.50924 | -2.28877 | 11560 ft | 321 kts | 194° |
| 2026-05-04 19:17 | 49.48802 | -2.29813 | 11165 ft | 319 kts | 195° |
| 2026-05-04 19:17 | 49.46670 | -2.30754 | 10782 ft | 317 kts | 195° |
| 2026-05-04 19:18 | 49.44550 | -2.31690 | 10387 ft | 315 kts | 195° |
| 2026-05-04 19:18 | 49.42468 | -2.32612 | 10217 ft | 305 kts | 195° |
| 2026-05-04 19:18 | 49.40458 | -2.33501 | 10081 ft | 294 kts | 195° |
| 2026-05-04 19:18 | 49.38510 | -2.34361 | 9851 ft | 287 kts | 195° |
| 2026-05-04 19:19 | 49.36601 | -2.35202 | 9533 ft | 285 kts | 195° |
| 2026-05-04 19:19 | 49.34718 | -2.36028 | 9150 ft | 284 kts | 195° |
| 2026-05-04 19:19 | 49.32820 | -2.36864 | 8758 ft | 282 kts | 195° |
| 2026-05-04 19:19 | 49.30936 | -2.37690 | 8370 ft | 280 kts | 195° |
| 2026-05-04 19:20 | 49.29079 | -2.38602 | 7960 ft | 280 kts | 199° |
| 2026-05-04 19:20 | 49.27250 | -2.39683 | 7405 ft | 284 kts | 200° |
| 2026-05-04 19:20 | 49.25385 | -2.40797 | 6562 ft | 288 kts | 201° |
| 2026-05-04 19:20 | 49.23509 | -2.41907 | 5722 ft | 290 kts | 201° |
| 2026-05-04 19:21 | 49.21618 | -2.42994 | 4877 ft | 290 kts | 197° |
| 2026-05-04 19:21 | 49.19656 | -2.43201 | 4029 ft | 287 kts | 166° |
| 2026-05-04 19:21 | 49.17927 | -2.41760 | 3213 ft | 289 kts | 132° |
| 2026-05-04 19:21 | 49.17031 | -2.39075 | 2756 ft | 283 kts | 98° |
| 2026-05-04 19:22 | 49.17257 | -2.36168 | 2398 ft | 275 kts | 64° |
| 2026-05-04 19:22 | 49.18294 | -2.33773 | 2048 ft | 268 kts | 52° |
| 2026-05-04 19:22 | 49.19396 | -2.31509 | 1733 ft | 261 kts | 57° |
| 2026-05-04 19:22 | 49.20026 | -2.28985 | 1412 ft | 250 kts | 78° |
| 2026-05-04 19:23 | 49.20249 | -2.26456 | 1084 ft | 231 kts | 83° |
| 2026-05-04 19:23 | 49.20420 | -2.24106 | 777 ft | 215 kts | 82° |
| 2026-05-04 19:23 | 49.20603 | -2.21852 | 486 ft | 211 kts | 81° |
| 2026-05-04 19:23 | 49.20789 | -2.19644 | 759 ft | 219 kts | 81° |
| 2026-05-04 19:24 | 49.21001 | -2.17241 | 1442 ft | 235 kts | 81° |
| 2026-05-04 19:24 | 49.21229 | -2.14771 | 2139 ft | 227 kts | 81° |
| 2026-05-04 19:24 | 49.21435 | -2.12436 | 2696 ft | 219 kts | 82° |
| 2026-05-04 19:24 | 49.21622 | -2.10097 | 2984 ft | 222 kts | 84° |
| 2026-05-04 19:25 | 49.21414 | -2.07799 | 3005 ft | 221 kts | 115° |
| 2026-05-04 19:25 | 49.20415 | -2.06076 | 3004 ft | 224 kts | 149° |
| 2026-05-04 19:25 | 49.18917 | -2.05433 | 3010 ft | 226 kts | 175° |
| 2026-05-04 19:25 | 49.17332 | -2.05405 | 3008 ft | 228 kts | 182° |
| 2026-05-04 19:26 | 49.15824 | -2.06048 | 3002 ft | 228 kts | 213° |
| 2026-05-04 19:26 | 49.14779 | -2.07832 | 3011 ft | 228 kts | 244° |
| 2026-05-04 19:26 | 49.14187 | -2.10081 | 3010 ft | 229 kts | 253° |
| 2026-05-04 19:26 | 49.13742 | -2.12419 | 3011 ft | 229 kts | 255° |
| 2026-05-04 19:27 | 49.13326 | -2.14743 | 3008 ft | 229 kts | 256° |
| 2026-05-04 19:27 | 49.12914 | -2.17091 | 3011 ft | 229 kts | 256° |
| 2026-05-04 19:27 | 49.12501 | -2.19447 | 3013 ft | 229 kts | 256° |
| 2026-05-04 19:27 | 49.12149 | -2.21817 | 3008 ft | 229 kts | 261° |
| 2026-05-04 19:28 | 49.11946 | -2.24221 | 3010 ft | 227 kts | 265° |
| 2026-05-04 19:28 | 49.11793 | -2.26633 | 3007 ft | 228 kts | 265° |
| 2026-05-04 19:28 | 49.11650 | -2.29016 | 3012 ft | 227 kts | 265° |
| 2026-05-04 19:28 | 49.11510 | -2.31420 | 3007 ft | 227 kts | 266° |
| 2026-05-04 19:29 | 49.11371 | -2.33818 | 3010 ft | 227 kts | 265° |
| 2026-05-04 19:29 | 49.11234 | -2.36196 | 3007 ft | 218 kts | 266° |
| 2026-05-04 19:29 | 49.11114 | -2.38449 | 2994 ft | 209 kts | 270° |
| 2026-05-04 19:29 | 49.11412 | -2.40536 | 2816 ft | 202 kts | 300° |
| 2026-05-04 19:30 | 49.12296 | -2.42102 | 2804 ft | 192 kts | 327° |
| 2026-05-04 19:30 | 49.13503 | -2.42836 | 2747 ft | 186 kts | 354° |
| 2026-05-04 19:30 | 49.14782 | -2.42698 | 2699 ft | 184 kts | 12° |
| 2026-05-04 19:30 | 49.16040 | -2.42334 | 2648 ft | 183 kts | 12° |
| 2026-05-04 19:31 | 49.17265 | -2.41841 | 2603 ft | 177 kts | 25° |
| 2026-05-04 19:31 | 49.18247 | -2.40831 | 2558 ft | 167 kts | 45° |
| 2026-05-04 19:31 | 49.18920 | -2.39449 | 2527 ft | 163 kts | 63° |
| 2026-05-04 19:31 | 49.19257 | -2.37799 | 2461 ft | 163 kts | 82° |
| 2026-05-04 19:32 | 49.19403 | -2.36083 | 2305 ft | 162 kts | 82° |
| 2026-05-04 19:32 | 49.19546 | -2.34381 | 2107 ft | 161 kts | 82° |
| 2026-05-04 19:32 | 49.19690 | -2.32684 | 1899 ft | 160 kts | 82° |
| 2026-05-04 19:32 | 49.19833 | -2.30995 | 1685 ft | 160 kts | 82° |
| 2026-05-04 19:33 | 49.19971 | -2.29355 | 1467 ft | 152 kts | 81° |
| 2026-05-04 19:33 | 49.20101 | -2.27815 | 1285 ft | 141 kts | 81° |
| 2026-05-04 19:33 | 49.20225 | -2.26341 | 1076 ft | 138 kts | 81° |
| 2026-05-04 19:33 | 49.20348 | -2.24887 | 861 ft | 137 kts | 81° |
| 2026-05-04 19:34 | 49.20469 | -2.23444 | 671 ft | 136 kts | 80° |
| 2026-05-04 19:34 | 49.20591 | -2.22009 | 486 ft | 135 kts | 81° |
| 2026-05-04 19:34 | 49.20711 | -2.20601 | 312 ft | 135 kts | 80° |
| 2026-05-04 19:34 | 49.20812 | -2.19389 | 285 ft | 84 kts | 84° |
| 2026-05-04 19:35 | 49.20864 | -2.18759 | 286 ft | 39 kts | 82° |
| 2026-05-04 19:35 | 49.20886 | -2.18496 | 279 ft | 16 kts | 83° |
| 2026-05-04 19:35 | 49.20843 | -2.18386 | 279 ft | 13 kts | 166° |
| 2026-05-04 19:35 | 49.20771 | -2.18416 | 282 ft | 9 kts | 219° |
| 2026-05-04 19:36 | 49.20738 | -2.18477 | 282 ft | 7 kts | 247° |
| 2026-05-04 19:36 | 49.20730 | -2.18547 | 282 ft | 8 kts | 262° |
| 2026-05-04 19:36 | 49.20723 | -2.18630 | 282 ft | 9 kts | 262° |
| 2026-05-04 19:36 | 49.20716 | -2.18715 | 282 ft | 9 kts | 263° |
| 2026-05-04 19:37 | 49.20708 | -2.18816 | 283 ft | 9 kts | 263° |
| 2026-05-04 19:37 | 49.20700 | -2.18911 | 283 ft | 9 kts | 263° |
| 2026-05-04 19:37 | 49.20693 | -2.18998 | 283 ft | 8 kts | 262° |
| 2026-05-04 19:37 | 49.20685 | -2.19088 | 283 ft | 9 kts | 262° |
| 2026-05-04 19:38 | 49.20685 | -2.19229 | 280 ft | 15 kts | 282° |
| 2026-05-04 19:38 | 49.20708 | -2.19370 | 282 ft | 13 kts | 281° |
| 2026-05-04 19:38 | 49.20702 | -2.19498 | 280 ft | 11 kts | 260° |
| 2026-05-04 19:38 | 49.20685 | -2.19610 | 280 ft | 10 kts | 244° |
| 2026-05-04 19:39 | 49.20642 | -2.19668 | 280 ft | 6 kts | 202° |
| 2026-05-04 19:39 | 49.20606 | -2.19664 | 280 ft | 5 kts | 165° |
| 2026-05-04 19:39 | 49.20579 | -2.19648 | 282 ft | 4 kts | 159° |
| 2026-05-04 19:39 | 49.20568 | -2.19642 | 280 ft | 1 kts | 159° |
| 2026-05-04 19:40 | 49.20564 | -2.19640 | 280 ft | 0 kts | 159° |